Pagina principale
METAR-TAF:

METAR-TAF

Aeroporti :

Lamezia Terme, Italia

Aeroporto di Lamezia Terme

latitudine: 38-54N, longitudine: 016-15E, altezza: 15 m

Osservazione

Il bollettino è stato emesso 55 minuti fa, alle 23:50 UTC
Vento 23 kt da ovest con raffiche fino a 33 kt
Temperature 14°C
Umidità 82%
Pressione 1015 hPa
Visibilità 10 km o più
Nuvoloso ad un'altezza di 2000 ft

METAR: LICA 162350Z 26023G33KT 9999 BKN020 14/11 Q1015

Ora: 01:45 (00:45 UTC)

Previsione

Il bollettino è stato emesso 1 ora e 45 minuti fa, alle 23:00 UTC
Previsione valida dal 17 alle 00 UTC al 17 alle 24 UTC
Vento 22 kt da ovest con raffiche fino a 35 kt
Visibilità 10 km o più
Nubi sparse ad un'altezza di 2500 ft
Temporaneamente
dal 17 alle 00 UTC al 17 alle 06 UTC
rovesci di pioggia

TAF: LICA 162300Z 1700/1724 27022G35KT 9999 SCT025 TEMPO 1700/1706 SHRA

Osservazioni e previsioni meteorologiche di più di 4000 aeroporti (messaggi METAR e TAF).

Le stazioni disponibili sono rappresentate dai dischi gialli e rossi sulla carta.

Puntare il mouse per vedere il nome della stazione.

Clicca sopra per visualizzare le osservazioni e previsioni meteorologiche.

Per cambiare la mappa : fare clic sui pulsanti verdi con una croce nera per ingrandire, il pulsante verde con un trattino per diminuire, o sulla freccia verde per le mappe adiacenti.


METAR-TAF: